Capitol Logistics 797


KMIA
Miami International Airport
Miami, Florida, US
SCEL
Arturo Merino Benitez International Airport
Santiago, , CL

Route Details

Aircraft Information
Primary: Boeing 747-400BCF
Backup: Boeing 777-200LRF
Route Data
Distance: 3625nm
Sched. Duration: 7h 29m
Avg. Duration: 8h 37m (+107m)
Times Flown: 3
Recm'd Route: EONNS2 EONNS A509 URSUS UA301 UCA UG430 SIA UB510 COLBY UM795 ILTUR UM795 BOKAN UM795 LOBOT UM795 KUSKU UM795 PUPMI UM795 JCL UL302 TOY UV208 SIMOK SIMOK2C
Planned Altitude: 31,000ft
Origin Wx: KMIA 231553Z 28004KT 10SM FEW020 23/16 A3011 RMK AO2 SLP195 T02280161 $
Dest. Wx: SCEL 231600Z 17011KT 140V200 CAVOK 26/14 Q1013 NOSIG
Notes:

Financial History
Total Freight: 394,361lbs
Average Load: 131,454lbs/flt
Fuel Used: 462,244lbs
Avg. Fuel Used: 154,081lbs/flt
Fuel Expense: $568,560
Avg. Fuel Expense: $189,520
Avg. Fuel Cost: $1.23/lbs
Total Gross Income: $1,092,403
Pilot Pay: $717
Total Expenses: $118,136
Total Revenue: $399,319
Average Revenue: $364,134.36